sensor_id;sensor_type;location;lat;lon;timestamp;pressure;altitude;pressure_sealevel;temperature;humidity
12799;BME280;19250;42.646;26.980;2023-02-21T00:02:36;99126.06;;;6.47;69.27
12799;BME280;19250;42.646;26.980;2023-02-21T00:05:20;99121.97;;;6.64;68.07
12799;BME280;19250;42.646;26.980;2023-02-21T00:08:05;99111.44;;;6.73;67.58
12799;BME280;19250;42.646;26.980;2023-02-21T00:10:49;99117.84;;;6.71;67.69
12799;BME280;19250;42.646;26.980;2023-02-21T00:13:36;99113.28;;;6.82;67.75
12799;BME280;19250;42.646;26.980;2023-02-21T00:16:22;99104.94;;;6.56;69.20
12799;BME280;19250;42.646;26.980;2023-02-21T00:19:06;99101.50;;;6.66;69.42
12799;BME280;19250;42.646;26.980;2023-02-21T00:21:52;99110.22;;;6.77;69.14
12799;BME280;19250;42.646;26.980;2023-02-21T00:24:36;99097.09;;;6.76;69.18
12799;BME280;19250;42.646;26.980;2023-02-21T00:27:20;99082.34;;;6.83;68.68
12799;BME280;19250;42.646;26.980;2023-02-21T00:30:08;99078.63;;;6.95;68.27
12799;BME280;19250;42.646;26.980;2023-02-21T00:32:52;99076.00;;;7.04;67.75
12799;BME280;19250;42.646;26.980;2023-02-21T00:35:37;99075.78;;;7.17;66.91
12799;BME280;19250;42.646;26.980;2023-02-21T00:38:21;99076.09;;;7.33;66.14
12799;BME280;19250;42.646;26.980;2023-02-21T00:41:06;99070.69;;;7.04;66.60
12799;BME280;19250;42.646;26.980;2023-02-21T00:43:50;99064.78;;;6.82;68.47
12799;BME280;19250;42.646;26.980;2023-02-21T00:46:36;99066.06;;;6.67;68.84
12799;BME280;19250;42.646;26.980;2023-02-21T00:49:21;99060.78;;;6.67;69.43
12799;BME280;19250;42.646;26.980;2023-02-21T00:52:05;99059.91;;;6.87;68.21
12799;BME280;19250;42.646;26.980;2023-02-21T00:54:49;99058.94;;;6.88;67.43
12799;BME280;19250;42.646;26.980;2023-02-21T00:57:34;99036.34;;;6.93;66.34
12799;BME280;19250;42.646;26.980;2023-02-21T01:00:21;99048.88;;;6.91;67.50
12799;BME280;19250;42.646;26.980;2023-02-21T01:03:08;99040.47;;;6.77;68.07
12799;BME280;19250;42.646;26.980;2023-02-21T01:05:53;99040.25;;;6.89;67.54
12799;BME280;19250;42.646;26.980;2023-02-21T01:08:40;99008.88;;;6.85;67.54
12799;BME280;19250;42.646;26.980;2023-02-21T01:11:24;99032.66;;;7.15;66.79
12799;BME280;19250;42.646;26.980;2023-02-21T01:14:09;99028.84;;;7.08;67.33
12799;BME280;19250;42.646;26.980;2023-02-21T01:16:54;99025.34;;;6.98;67.82
12799;BME280;19250;42.646;26.980;2023-02-21T01:19:39;99026.44;;;6.95;68.29
12799;BME280;19250;42.646;26.980;2023-02-21T01:22:24;99035.31;;;6.75;68.35
12799;BME280;19250;42.646;26.980;2023-02-21T01:25:09;99023.81;;;6.95;67.79
12799;BME280;19250;42.646;26.980;2023-02-21T01:27:54;99022.66;;;6.88;67.84
12799;BME280;19250;42.646;26.980;2023-02-21T01:30:38;99022.50;;;7.49;64.51
12799;BME280;19250;42.646;26.980;2023-02-21T01:33:23;98999.88;;;7.35;65.50
12799;BME280;19250;42.646;26.980;2023-02-21T01:36:09;99001.19;;;6.82;68.16
12799;BME280;19250;42.646;26.980;2023-02-21T01:38:54;98993.38;;;6.90;68.03
12799;BME280;19250;42.646;26.980;2023-02-21T01:41:39;98996.47;;;7.04;67.44
12799;BME280;19250;42.646;26.980;2023-02-21T01:44:37;98997.25;;;6.86;68.59
12799;BME280;19250;42.646;26.980;2023-02-21T01:47:22;98980.13;;;6.90;68.49
12799;BME280;19250;42.646;26.980;2023-02-21T01:50:16;98980.41;;;6.87;68.25
12799;BME280;19250;42.646;26.980;2023-02-21T01:53:07;98971.47;;;6.97;67.75
12799;BME280;19250;42.646;26.980;2023-02-21T01:55:54;98984.22;;;7.13;66.54
12799;BME280;19250;42.646;26.980;2023-02-21T01:58:39;98976.16;;;7.24;65.80
12799;BME280;19250;42.646;26.980;2023-02-21T02:01:33;98974.47;;;7.42;64.21
12799;BME280;19250;42.646;26.980;2023-02-21T02:04:19;98975.13;;;7.16;65.58
12799;BME280;19250;42.646;26.980;2023-02-21T02:07:03;98975.16;;;7.35;64.40
12799;BME280;19250;42.646;26.980;2023-02-21T02:09:49;98969.56;;;7.28;65.10
12799;BME280;19250;42.646;26.980;2023-02-21T02:13:00;98971.41;;;7.18;65.80
12799;BME280;19250;42.646;26.980;2023-02-21T02:15:38;98967.75;;;7.19;66.34
12799;BME280;19250;42.646;26.980;2023-02-21T02:18:30;98965.66;;;7.13;66.44
12799;BME280;19250;42.646;26.980;2023-02-21T02:24:26;98965.69;;;7.51;64.57
12799;BME280;19250;42.646;26.980;2023-02-21T02:27:13;98952.81;;;6.99;67.25
12799;BME280;19250;42.646;26.980;2023-02-21T02:30:13;98952.31;;;6.65;70.24
12799;BME280;19250;42.646;26.980;2023-02-21T02:33:21;98941.81;;;6.44;72.42
12799;BME280;19250;42.646;26.980;2023-02-21T02:35:59;98917.97;;;6.44;73.17
12799;BME280;19250;42.646;26.980;2023-02-21T02:38:32;98934.69;;;6.54;71.65
12799;BME280;19250;42.646;26.980;2023-02-21T02:41:06;98936.84;;;6.30;73.80
12799;BME280;19250;42.646;26.980;2023-02-21T02:43:42;98940.22;;;6.72;71.34
12799;BME280;19250;42.646;26.980;2023-02-21T02:46:16;98935.47;;;6.76;70.78
12799;BME280;19250;42.646;26.980;2023-02-21T02:48:51;98939.91;;;6.66;71.39
12799;BME280;19250;42.646;26.980;2023-02-21T02:51:21;98939.97;;;6.85;70.42
12799;BME280;19250;42.646;26.980;2023-02-21T02:53:49;98945.69;;;6.90;69.21
12799;BME280;19250;42.646;26.980;2023-02-21T02:56:16;98943.16;;;6.98;68.43
12799;BME280;19250;42.646;26.980;2023-02-21T02:58:47;98950.16;;;6.99;67.76
12799;BME280;19250;42.646;26.980;2023-02-21T03:01:32;98947.81;;;7.25;65.80
12799;BME280;19250;42.646;26.980;2023-02-21T03:04:19;98951.72;;;7.30;65.05
12799;BME280;19250;42.646;26.980;2023-02-21T03:06:56;98945.97;;;7.25;65.64
12799;BME280;19250;42.646;26.980;2023-02-21T03:09:30;98938.03;;;7.06;66.77
12799;BME280;19250;42.646;26.980;2023-02-21T03:12:03;98944.59;;;7.02;66.87
12799;BME280;19250;42.646;26.980;2023-02-21T03:14:37;98943.69;;;6.73;69.17
12799;BME280;19250;42.646;26.980;2023-02-21T03:17:09;98935.63;;;6.84;68.36
12799;BME280;19250;42.646;26.980;2023-02-21T03:19:40;98949.56;;;6.86;67.74
12799;BME280;19250;42.646;26.980;2023-02-21T03:22:13;98949.59;;;6.95;67.10
12799;BME280;19250;42.646;26.980;2023-02-21T03:24:44;98944.72;;;6.91;67.64
12799;BME280;19250;42.646;26.980;2023-02-21T03:27:13;98951.09;;;6.79;68.17
12799;BME280;19250;42.646;26.980;2023-02-21T03:29:42;98952.91;;;6.78;68.01
12799;BME280;19250;42.646;26.980;2023-02-21T03:32:12;98954.03;;;6.76;68.05
12799;BME280;19250;42.646;26.980;2023-02-21T03:34:41;98952.06;;;6.78;68.21
12799;BME280;19250;42.646;26.980;2023-02-21T03:37:20;98958.50;;;6.85;68.23
12799;BME280;19250;42.646;26.980;2023-02-21T03:39:48;98958.75;;;6.72;69.43
12799;BME280;19250;42.646;26.980;2023-02-21T03:42:15;98967.28;;;6.76;69.57
12799;BME280;19250;42.646;26.980;2023-02-21T03:44:43;98970.22;;;6.92;69.17
12799;BME280;19250;42.646;26.980;2023-02-21T03:47:10;98964.63;;;6.85;69.15
12799;BME280;19250;42.646;26.980;2023-02-21T03:49:38;98978.25;;;6.71;70.51
12799;BME280;19250;42.646;26.980;2023-02-21T03:52:05;98971.50;;;6.57;72.64
12799;BME280;19250;42.646;26.980;2023-02-21T03:54:35;98964.28;;;6.60;74.70
12799;BME280;19250;42.646;26.980;2023-02-21T03:57:03;98965.41;;;6.67;75.76
12799;BME280;19250;42.646;26.980;2023-02-21T03:59:30;98945.78;;;6.69;76.37
12799;BME280;19250;42.646;26.980;2023-02-21T04:01:57;98962.06;;;6.65;77.51
12799;BME280;19250;42.646;26.980;2023-02-21T04:04:24;98954.41;;;6.71;77.95
12799;BME280;19250;42.646;26.980;2023-02-21T04:06:52;98937.91;;;6.58;78.69
12799;BME280;19250;42.646;26.980;2023-02-21T04:09:19;98948.13;;;6.63;79.06
12799;BME280;19250;42.646;26.980;2023-02-21T04:11:48;98949.50;;;6.67;78.66
12799;BME280;19250;42.646;26.980;2023-02-21T04:14:15;98939.91;;;6.66;78.55
12799;BME280;19250;42.646;26.980;2023-02-21T04:16:42;98925.25;;;6.62;78.59
12799;BME280;19250;42.646;26.980;2023-02-21T04:19:09;98938.06;;;6.56;79.48
12799;BME280;19250;42.646;26.980;2023-02-21T04:21:37;98937.22;;;6.56;79.41
12799;BME280;19250;42.646;26.980;2023-02-21T04:24:04;98927.97;;;6.41;80.70
12799;BME280;19250;42.646;26.980;2023-02-21T04:26:32;98920.81;;;6.22;81.59
12799;BME280;19250;42.646;26.980;2023-02-21T04:29:01;98928.47;;;6.25;81.67
12799;BME280;19250;42.646;26.980;2023-02-21T04:31:28;98932.94;;;6.25;81.56
12799;BME280;19250;42.646;26.980;2023-02-21T04:33:57;98934.72;;;6.24;81.98
12799;BME280;19250;42.646;26.980;2023-02-21T04:36:24;98881.97;;;5.92;82.10
12799;BME280;19250;42.646;26.980;2023-02-21T04:38:52;98929.44;;;6.24;82.48
12799;BME280;19250;42.646;26.980;2023-02-21T04:41:19;98927.59;;;6.15;82.76
12799;BME280;19250;42.646;26.980;2023-02-21T04:43:47;98934.38;;;6.38;81.29
12799;BME280;19250;42.646;26.980;2023-02-21T04:46:16;98927.72;;;6.44;80.24
12799;BME280;19250;42.646;26.980;2023-02-21T04:48:45;98935.97;;;6.50;80.03
12799;BME280;19250;42.646;26.980;2023-02-21T04:51:15;98942.81;;;6.63;79.51
12799;BME280;19250;42.646;26.980;2023-02-21T04:53:43;98932.22;;;6.63;79.70
12799;BME280;19250;42.646;26.980;2023-02-21T04:56:12;98909.25;;;6.23;80.95
12799;BME280;19250;42.646;26.980;2023-02-21T04:58:40;98934.09;;;6.32;81.52
12799;BME280;19250;42.646;26.980;2023-02-21T05:01:09;98926.28;;;6.40;81.27
12799;BME280;19250;42.646;26.980;2023-02-21T05:03:38;98924.59;;;6.29;81.55
12799;BME280;19250;42.646;26.980;2023-02-21T05:06:06;98907.72;;;6.30;81.77
12799;BME280;19250;42.646;26.980;2023-02-21T05:08:34;98911.94;;;6.33;81.27
12799;BME280;19250;42.646;26.980;2023-02-21T05:11:01;98885.84;;;6.28;80.84
12799;BME280;19250;42.646;26.980;2023-02-21T05:13:29;98892.16;;;6.46;79.92
12799;BME280;19250;42.646;26.980;2023-02-21T05:15:56;98902.38;;;6.51;79.44
12799;BME280;19250;42.646;26.980;2023-02-21T05:18:23;98903.59;;;6.47;79.88
12799;BME280;19250;42.646;26.980;2023-02-21T05:20:54;98900.97;;;6.47;80.53
12799;BME280;19250;42.646;26.980;2023-02-21T05:23:22;98897.59;;;6.35;80.64
12799;BME280;19250;42.646;26.980;2023-02-21T05:26:00;98905.25;;;6.38;80.94
12799;BME280;19250;42.646;26.980;2023-02-21T05:28:28;98883.63;;;6.33;81.35
12799;BME280;19250;42.646;26.980;2023-02-21T05:30:56;98895.50;;;6.48;80.68
12799;BME280;19250;42.646;26.980;2023-02-21T05:33:23;98878.66;;;6.49;79.83
12799;BME280;19250;42.646;26.980;2023-02-21T05:35:51;98878.97;;;6.56;79.36
12799;BME280;19250;42.646;26.980;2023-02-21T05:38:21;98896.00;;;6.73;77.89
12799;BME280;19250;42.646;26.980;2023-02-21T05:40:49;98886.81;;;6.96;76.49
12799;BME280;19250;42.646;26.980;2023-02-21T05:43:16;98863.66;;;6.98;75.42
12799;BME280;19250;42.646;26.980;2023-02-21T05:45:44;98896.03;;;7.11;75.24
12799;BME280;19250;42.646;26.980;2023-02-21T05:48:11;98895.75;;;7.14;75.32
12799;BME280;19250;42.646;26.980;2023-02-21T05:50:39;98896.84;;;7.40;73.58
12799;BME280;19250;42.646;26.980;2023-02-21T05:53:06;98899.66;;;7.39;73.15
12799;BME280;19250;42.646;26.980;2023-02-21T05:55:36;98915.97;;;7.53;72.74
12799;BME280;19250;42.646;26.980;2023-02-21T05:58:04;98901.56;;;7.65;71.71
12799;BME280;19250;42.646;26.980;2023-02-21T06:00:31;98910.72;;;7.90;70.77
12799;BME280;19250;42.646;26.980;2023-02-21T06:02:58;98904.13;;;8.04;70.32
12799;BME280;19250;42.646;26.980;2023-02-21T06:05:26;98911.00;;;7.97;70.27
12799;BME280;19250;42.646;26.980;2023-02-21T06:07:53;98907.47;;;8.06;69.65
12799;BME280;19250;42.646;26.980;2023-02-21T06:10:20;98884.13;;;8.46;67.63
12799;BME280;19250;42.646;26.980;2023-02-21T06:12:49;98914.69;;;8.77;66.09
12799;BME280;19250;42.646;26.980;2023-02-21T06:15:17;98909.78;;;8.83;63.57
12799;BME280;19250;42.646;26.980;2023-02-21T06:17:44;98909.78;;;8.83;63.92
12799;BME280;19250;42.646;26.980;2023-02-21T06:20:13;98904.03;;;9.05;62.99
12799;BME280;19250;42.646;26.980;2023-02-21T06:22:41;98913.53;;;8.62;64.54
12799;BME280;19250;42.646;26.980;2023-02-21T06:25:09;98913.13;;;8.85;66.43
12799;BME280;19250;42.646;26.980;2023-02-21T06:27:37;98910.88;;;8.90;63.69
12799;BME280;19250;42.646;26.980;2023-02-21T06:30:06;98916.47;;;8.87;63.79
12799;BME280;19250;42.646;26.980;2023-02-21T06:32:33;98914.75;;;8.95;62.64
12799;BME280;19250;42.646;26.980;2023-02-21T06:35:02;98916.28;;;8.70;63.69
12799;BME280;19250;42.646;26.980;2023-02-21T06:37:29;98915.47;;;8.88;62.72
12799;BME280;19250;42.646;26.980;2023-02-21T06:39:57;98928.88;;;8.96;62.06
12799;BME280;19250;42.646;26.980;2023-02-21T06:42:24;98914.03;;;8.93;62.13
12799;BME280;19250;42.646;26.980;2023-02-21T06:44:51;98910.81;;;9.17;60.74
12799;BME280;19250;42.646;26.980;2023-02-21T06:47:20;98905.75;;;9.49;59.92
12799;BME280;19250;42.646;26.980;2023-02-21T06:49:47;98907.34;;;9.60;58.19
12799;BME280;19250;42.646;26.980;2023-02-21T06:52:14;98908.56;;;9.65;57.67
12799;BME280;19250;42.646;26.980;2023-02-21T06:54:42;98913.00;;;9.82;57.34
12799;BME280;19250;42.646;26.980;2023-02-21T06:57:11;98899.00;;;9.80;56.59
12799;BME280;19250;42.646;26.980;2023-02-21T06:59:38;98909.06;;;9.95;55.98
12799;BME280;19250;42.646;26.980;2023-02-21T07:02:07;98898.13;;;9.72;58.09
12799;BME280;19250;42.646;26.980;2023-02-21T07:04:42;98905.31;;;10.05;57.95
12799;BME280;19250;42.646;26.980;2023-02-21T07:07:09;98908.63;;;9.81;58.37
12799;BME280;19250;42.646;26.980;2023-02-21T07:09:36;98915.59;;;10.18;58.41
12799;BME280;19250;42.646;26.980;2023-02-21T07:12:04;98907.50;;;10.10;57.96
12799;BME280;19250;42.646;26.980;2023-02-21T07:14:33;98913.25;;;10.15;58.82
12799;BME280;19250;42.646;26.980;2023-02-21T07:17:01;98920.03;;;10.43;57.42
12799;BME280;19250;42.646;26.980;2023-02-21T07:19:28;98918.66;;;10.73;55.98
12799;BME280;19250;42.646;26.980;2023-02-21T07:21:57;98925.44;;;10.59;56.77
12799;BME280;19250;42.646;26.980;2023-02-21T07:24:24;98846.44;;;10.50;54.28
12799;BME280;19250;42.646;26.980;2023-02-21T07:26:51;98922.56;;;11.03;54.43
12799;BME280;19250;42.646;26.980;2023-02-21T07:29:19;98892.94;;;11.30;52.80
12799;BME280;19250;42.646;26.980;2023-02-21T07:31:46;98909.13;;;11.36;52.78
12799;BME280;19250;42.646;26.980;2023-02-21T07:34:13;98908.13;;;11.78;51.31
12799;BME280;19250;42.646;26.980;2023-02-21T07:36:41;98901.47;;;11.82;51.04
12799;BME280;19250;42.646;26.980;2023-02-21T07:39:10;98897.91;;;12.14;49.79
12799;BME280;19250;42.646;26.980;2023-02-21T07:41:38;98901.41;;;12.06;50.39
12799;BME280;19250;42.646;26.980;2023-02-21T07:44:05;98896.94;;;11.90;50.81
12799;BME280;19250;42.646;26.980;2023-02-21T07:46:33;98902.75;;;12.02;50.94
12799;BME280;19250;42.646;26.980;2023-02-21T07:49:00;98911.28;;;12.14;50.86
12799;BME280;19250;42.646;26.980;2023-02-21T07:51:27;98907.25;;;12.65;49.38
12799;BME280;19250;42.646;26.980;2023-02-21T07:53:55;98916.31;;;12.55;49.43
12799;BME280;19250;42.646;26.980;2023-02-21T07:56:24;98909.44;;;12.61;49.37
12799;BME280;19250;42.646;26.980;2023-02-21T07:58:51;98911.53;;;12.74;48.49
12799;BME280;19250;42.646;26.980;2023-02-21T08:01:21;98880.28;;;12.35;49.39
12799;BME280;19250;42.646;26.980;2023-02-21T08:03:49;98904.53;;;12.34;49.45
12799;BME280;19250;42.646;26.980;2023-02-21T08:06:16;98895.75;;;12.48;49.29
12799;BME280;19250;42.646;26.980;2023-02-21T08:08:44;98894.78;;;12.49;49.39
12799;BME280;19250;42.646;26.980;2023-02-21T08:11:11;98897.25;;;12.04;50.92
12799;BME280;19250;42.646;26.980;2023-02-21T08:13:40;98896.53;;;12.18;50.99
12799;BME280;19250;42.646;26.980;2023-02-21T08:16:07;98888.28;;;12.43;49.73
12799;BME280;19250;42.646;26.980;2023-02-21T08:18:34;98886.84;;;12.25;50.66
12799;BME280;19250;42.646;26.980;2023-02-21T08:21:02;98879.41;;;12.43;50.08
12799;BME280;19250;42.646;26.980;2023-02-21T08:23:29;98885.28;;;12.38;50.57
12799;BME280;19250;42.646;26.980;2023-02-21T08:25:56;98887.63;;;12.72;49.21
12799;BME280;19250;42.646;26.980;2023-02-21T08:28:24;98852.25;;;12.93;48.86
12799;BME280;19250;42.646;26.980;2023-02-21T08:30:52;98867.06;;;12.73;49.13
12799;BME280;19250;42.646;26.980;2023-02-21T08:33:20;98874.03;;;12.51;49.99
12799;BME280;19250;42.646;26.980;2023-02-21T08:35:47;98873.19;;;12.81;48.95
12799;BME280;19250;42.646;26.980;2023-02-21T08:38:16;98877.78;;;12.73;48.79
12799;BME280;19250;42.646;26.980;2023-02-21T08:40:44;98861.00;;;12.79;48.79
12799;BME280;19250;42.646;26.980;2023-02-21T08:43:11;98861.97;;;13.17;47.73
12799;BME280;19250;42.646;26.980;2023-02-21T08:45:38;98858.84;;;13.05;47.75
12799;BME280;19250;42.646;26.980;2023-02-21T08:48:07;98857.88;;;13.29;47.29
